createdAt,value
2023-03-13T00:03:57.290Z,5.15
2023-03-13T00:08:19.322Z,4.60
2023-03-13T00:12:41.385Z,4.60
2023-03-13T00:17:03.528Z,4.63
2023-03-13T00:21:29.668Z,5.25
2023-03-13T00:26:01.724Z,4.97
2023-03-13T00:30:23.483Z,4.78
2023-03-13T00:34:45.482Z,4.47
2023-03-13T00:39:07.980Z,5.10
2023-03-13T00:43:30.468Z,5.55
2023-03-13T00:47:52.662Z,4.85
2023-03-13T00:52:14.821Z,4.90
2023-03-13T00:56:37.450Z,4.20
2023-03-13T01:01:19.283Z,4.78
2023-03-13T01:05:41.567Z,4.50
2023-03-13T01:10:03.948Z,4.63
2023-03-13T01:14:26.069Z,4.30
2023-03-13T01:18:52.932Z,4.30
2023-03-13T01:23:15.930Z,5.38
2023-03-13T01:27:38.055Z,4.20
2023-03-13T01:32:00.843Z,4.50
2023-03-13T01:36:23.293Z,4.13
2023-03-13T01:40:49.661Z,4.68
2023-03-13T01:46:04.881Z,3.85
2023-03-13T01:50:59.352Z,4.30
2023-03-13T01:55:23.614Z,4.20
2023-03-13T01:59:57.194Z,4.75
2023-03-13T02:04:22.693Z,3.88
2023-03-13T02:09:25.749Z,4.57
2023-03-13T02:13:50.454Z,4.32
2023-03-13T02:18:13.918Z,3.83
2023-03-13T02:22:47.950Z,4.07
2023-03-13T02:27:09.950Z,4.38
2023-03-13T02:31:35.273Z,3.67
2023-03-13T02:36:00.286Z,4.95
2023-03-13T02:40:30.623Z,4.13
2023-03-13T02:44:53.231Z,4.50
2023-03-13T02:49:31.052Z,4.97
2023-03-13T02:53:57.874Z,4.90
2023-03-13T02:58:20.975Z,3.75
2023-03-13T03:02:44.757Z,4.40
2023-03-13T03:07:06.658Z,4.03
2023-03-13T03:11:35.537Z,4.10
2023-03-13T03:16:11.210Z,4.03
2023-03-13T03:20:33.719Z,4.55
2023-03-13T03:24:55.852Z,3.55
2023-03-13T03:29:19.873Z,4.32
2023-03-13T03:33:46.151Z,4.75
2023-03-13T03:38:10.649Z,3.92
2023-03-13T03:42:34.194Z,4.07
2023-03-13T03:46:57.312Z,4.43
2023-03-13T03:51:22.649Z,4.75
2023-03-13T03:55:45.862Z,4.15
2023-03-13T04:00:10.992Z,4.13
2023-03-13T04:04:34.736Z,4.28
2023-03-13T04:09:01.673Z,4.35
2023-03-13T04:13:25.174Z,4.22
2023-03-13T04:17:47.996Z,4.00
2023-03-13T04:22:11.813Z,3.22
2023-03-13T04:26:40.354Z,4.43
2023-03-13T04:31:02.633Z,3.30
2023-03-13T04:35:48.036Z,3.88
2023-03-13T04:40:33.358Z,3.80
2023-03-13T04:45:12.711Z,3.10
2023-03-13T04:49:58.295Z,3.58
2023-03-13T04:54:37.334Z,5.00
2023-03-13T04:59:16.797Z,3.63
2023-03-13T05:03:54.156Z,3.75
2023-03-13T05:08:35.836Z,3.67
2023-03-13T05:13:16.657Z,3.53
2023-03-13T05:18:01.368Z,3.35
2023-03-13T05:22:33.516Z,3.92
2023-03-13T05:27:27.876Z,2.35
2023-03-13T05:32:15.769Z,3.45
2023-03-13T05:37:04.334Z,2.92
2023-03-13T05:41:46.385Z,2.70
2023-03-13T05:46:11.246Z,4.38
2023-03-13T05:50:59.721Z,3.15
2023-03-13T05:55:40.753Z,2.88
2023-03-13T06:00:35.909Z,2.60
2023-03-13T06:05:30.330Z,3.20
2023-03-13T06:09:53.514Z,3.88
2023-03-13T06:14:15.607Z,3.28
2023-03-13T06:18:56.195Z,3.45
2023-03-13T06:23:18.526Z,2.78
2023-03-13T06:27:42.209Z,3.63
2023-03-13T06:32:05.051Z,2.70
2023-03-13T06:36:27.419Z,4.03
2023-03-13T06:40:50.355Z,2.80
2023-03-13T06:45:12.668Z,3.05
2023-03-13T06:49:36.599Z,3.95
2023-03-13T06:53:58.768Z,2.92
2023-03-13T06:58:31.773Z,2.22
2023-03-13T07:02:54.997Z,2.45
2023-03-13T07:07:29.473Z,2.38
2023-03-13T07:11:53.338Z,3.13
2023-03-13T07:16:16.716Z,2.55
2023-03-13T07:20:38.605Z,2.33
2023-03-13T07:25:01.203Z,2.55
2023-03-13T07:29:23.658Z,2.33
2023-03-13T07:33:46.436Z,2.15
2023-03-13T07:38:10.077Z,1.90
2023-03-13T07:42:32.425Z,2.10
2023-03-13T07:46:54.556Z,2.30
2023-03-13T07:51:30.254Z,1.80
2023-03-13T07:56:05.658Z,1.40
2023-03-13T08:00:28.010Z,1.70
2023-03-13T08:04:53.584Z,1.60
2023-03-13T08:09:16.022Z,2.10
2023-03-13T08:13:39.785Z,1.85
2023-03-13T08:18:02.471Z,1.80
2023-03-13T08:22:24.931Z,1.98
2023-03-13T08:26:46.850Z,1.58
2023-03-13T08:31:19.836Z,1.30
2023-03-13T08:35:42.372Z,1.08
2023-03-13T08:40:10.433Z,1.58
2023-03-13T08:44:32.768Z,1.38
2023-03-13T08:48:55.895Z,1.50
2023-03-13T08:53:18.254Z,1.02
2023-03-13T08:57:40.989Z,1.92
2023-03-13T09:02:03.501Z,1.60
2023-03-13T09:06:26.065Z,1.70
2023-03-13T09:10:48.079Z,1.30
2023-03-13T09:15:11.287Z,1.70
2023-03-13T09:19:33.711Z,2.00
2023-03-13T09:23:57.502Z,1.38
2023-03-13T09:28:19.596Z,1.30
2023-03-13T09:32:42.048Z,1.55
2023-03-13T09:37:04.061Z,1.60
2023-03-13T09:41:43.235Z,1.73
2023-03-13T09:46:14.227Z,1.38
2023-03-13T09:50:44.631Z,0.80
2023-03-13T09:55:21.670Z,1.50
2023-03-13T10:00:07.617Z,1.60
2023-03-13T10:04:42.140Z,1.33
2023-03-13T10:39:14.981Z,1.05
2023-03-13T10:43:55.058Z,1.75
2023-03-13T10:48:23.648Z,1.30
2023-03-13T10:52:48.275Z,1.10
2023-03-13T10:57:29.849Z,1.65
2023-03-13T11:01:54.413Z,1.48
2023-03-13T11:06:36.710Z,1.60
2023-03-13T11:11:05.405Z,1.90
2023-03-13T11:15:40.029Z,2.10
2023-03-13T11:20:38.771Z,1.65
2023-03-13T11:25:26.283Z,1.80
2023-03-13T11:30:36.260Z,1.60
2023-03-13T11:35:05.028Z,1.55
2023-03-13T11:39:51.599Z,1.65
2023-03-13T11:44:43.428Z,1.23
2023-03-13T11:49:41.746Z,1.50
2023-03-13T11:54:45.137Z,1.40
2023-03-13T11:59:25.693Z,1.25
2023-03-13T12:04:12.486Z,1.10
2023-03-13T12:08:46.533Z,1.08
2023-03-13T12:13:33.706Z,1.23
2023-03-13T12:18:05.067Z,1.30
2023-03-13T12:22:36.620Z,1.10
2023-03-13T12:27:17.985Z,1.00
2023-03-13T12:31:52.473Z,1.55
2023-03-13T12:36:36.011Z,1.27
2023-03-13T12:41:11.699Z,1.13
2023-03-13T12:45:37.513Z,0.70
2023-03-13T12:50:23.797Z,1.52
2023-03-13T12:55:10.039Z,1.05
2023-03-13T12:59:59.355Z,1.38
2023-03-13T13:04:42.078Z,1.00
2023-03-13T13:09:36.256Z,1.33
2023-03-13T13:13:58.651Z,1.40
2023-03-13T13:18:32.694Z,1.42
2023-03-13T13:22:54.881Z,1.50
2023-03-13T13:27:47.386Z,1.60
2023-03-13T13:32:15.339Z,1.38
2023-03-13T13:36:44.699Z,1.88
2023-03-13T13:41:09.802Z,1.60
2023-03-13T13:45:39.555Z,1.60
2023-03-13T13:50:01.789Z,1.40
2023-03-13T13:54:42.648Z,1.42
2023-03-13T13:59:25.040Z,1.80
2023-03-13T14:03:50.996Z,1.77
2023-03-13T14:08:30.024Z,1.58
2023-03-13T14:12:59.388Z,1.45
2023-03-13T14:17:22.049Z,1.55
2023-03-13T14:21:44.520Z,1.30
2023-03-13T14:26:26.405Z,1.42
2023-03-13T14:30:50.875Z,1.17
2023-03-13T14:35:19.602Z,1.45
2023-03-13T14:39:48.987Z,1.63
2023-03-13T14:44:31.775Z,1.75
2023-03-13T14:49:05.288Z,2.10
2023-03-13T14:53:28.145Z,1.63
2023-03-13T14:58:07.533Z,1.60
2023-03-13T15:02:32.530Z,1.90
2023-03-13T15:07:03.743Z,1.95
2023-03-13T15:11:34.160Z,1.38
2023-03-13T15:15:56.459Z,1.70
2023-03-13T15:20:18.497Z,1.85
2023-03-13T15:24:40.934Z,1.80
2023-03-13T15:29:08.589Z,1.70
2023-03-13T15:33:31.481Z,1.50
2023-03-13T15:37:54.713Z,1.90
2023-03-13T15:42:16.929Z,1.60
2023-03-13T15:46:38.878Z,1.73
2023-03-13T15:51:04.265Z,1.90
2023-03-13T15:55:28.551Z,1.95
2023-03-13T15:59:53.053Z,2.35
2023-03-13T16:04:14.961Z,1.92
2023-03-13T16:08:37.523Z,1.95
2023-03-13T16:12:59.593Z,1.98
2023-03-13T16:17:22.773Z,1.90
2023-03-13T16:21:48.552Z,2.05
2023-03-13T16:26:18.184Z,2.33
2023-03-13T16:30:44.393Z,2.47
2023-03-13T16:35:06.732Z,2.40
2023-03-13T16:39:29.120Z,2.58
2023-03-13T16:43:51.819Z,2.00
2023-03-13T16:48:19.345Z,2.40
2023-03-13T16:52:41.295Z,2.22
2023-03-13T16:57:04.614Z,2.40
2023-03-13T17:01:27.352Z,2.33
2023-03-13T17:05:49.511Z,2.35
2023-03-13T17:10:33.684Z,2.95
2023-03-13T17:14:55.544Z,2.33
2023-03-13T17:19:17.986Z,2.47
2023-03-13T17:23:41.809Z,2.40
2023-03-13T17:28:04.270Z,2.00
2023-03-13T17:32:26.185Z,2.33
2023-03-13T17:36:49.078Z,2.50
2023-03-13T17:41:17.222Z,2.25
2023-03-13T17:45:39.480Z,2.20
2023-03-13T17:50:01.498Z,2.35
2023-03-13T17:54:23.533Z,2.10
2023-03-13T17:58:46.115Z,2.65
2023-03-13T18:03:08.043Z,2.55
2023-03-13T18:07:30.600Z,2.60
2023-03-13T18:11:52.553Z,3.15
2023-03-13T18:16:23.708Z,2.33
2023-03-13T18:20:45.825Z,3.95
2023-03-13T18:25:08.731Z,3.65
2023-03-13T18:29:31.105Z,2.85
2023-03-13T18:33:53.468Z,2.30
2023-03-13T18:38:15.937Z,2.22
2023-03-13T18:42:37.831Z,2.20
2023-03-13T18:47:00.128Z,2.70
2023-03-13T18:51:25.005Z,3.00
2023-03-13T18:55:47.204Z,3.65
2023-03-13T19:00:21.171Z,1.80
2023-03-13T19:04:44.396Z,1.60
2023-03-13T19:09:41.758Z,1.17
2023-03-13T19:14:01.194Z,1.52
2023-03-13T19:18:23.066Z,1.80
2023-03-13T19:22:45.088Z,2.00
2023-03-13T19:27:07.440Z,1.88
2023-03-13T19:31:29.951Z,1.52
2023-03-13T19:35:52.331Z,1.20
2023-03-13T19:40:22.553Z,1.70
2023-03-13T19:44:45.321Z,1.80
2023-03-13T19:49:07.244Z,1.45
2023-03-13T19:53:29.138Z,1.70
2023-03-13T19:57:51.055Z,1.60
2023-03-13T20:02:13.361Z,1.92
2023-03-13T20:06:36.018Z,1.50
2023-03-13T20:10:57.847Z,1.85
2023-03-13T20:15:20.266Z,2.15
2023-03-13T20:19:42.548Z,1.75
2023-03-13T20:24:05.230Z,2.15
2023-03-13T20:28:26.975Z,1.50
2023-03-13T20:32:59.194Z,1.50
2023-03-13T20:37:21.551Z,1.95
2023-03-13T20:41:43.732Z,1.60
2023-03-13T20:46:09.821Z,1.40
2023-03-13T20:50:32.423Z,2.00
2023-03-13T20:54:54.451Z,1.80
2023-03-13T20:59:16.692Z,2.00
2023-03-13T21:03:38.845Z,1.80
2023-03-13T21:08:00.930Z,1.45
2023-03-13T21:12:23.104Z,1.75
2023-03-13T21:16:45.086Z,1.77
2023-03-13T21:21:11.184Z,1.70
2023-03-13T21:25:33.296Z,2.10
2023-03-13T21:29:55.162Z,1.50
2023-03-13T21:34:17.345Z,1.67
2023-03-13T21:38:39.919Z,1.85
2023-03-13T21:43:04.156Z,1.80
2023-03-13T21:47:26.486Z,1.90
2023-03-13T21:51:48.548Z,1.65
2023-03-13T21:56:15.392Z,1.90
2023-03-13T22:00:37.463Z,2.38
2023-03-13T22:04:59.705Z,2.50
2023-03-13T22:09:21.864Z,2.20
2023-03-13T22:13:43.741Z,2.13
2023-03-13T22:18:05.824Z,1.92
2023-03-13T22:22:27.497Z,2.33
2023-03-13T22:26:49.680Z,2.10
2023-03-13T22:31:12.881Z,2.38
2023-03-13T22:35:37.820Z,2.13
2023-03-13T22:39:59.769Z,2.25
2023-03-13T22:44:22.003Z,2.25
2023-03-13T22:48:43.912Z,2.30
2023-03-13T22:53:06.045Z,2.17
2023-03-13T22:57:29.328Z,2.15
2023-03-13T23:01:51.567Z,2.00
2023-03-13T23:06:19.368Z,2.47
2023-03-13T23:10:46.518Z,2.05
2023-03-13T23:15:10.315Z,1.92
2023-03-13T23:19:35.597Z,1.90
2023-03-13T23:23:57.389Z,1.90
2023-03-13T23:28:19.414Z,1.60
2023-03-13T23:32:44.982Z,1.80
2023-03-13T23:37:07.049Z,2.60
2023-03-13T23:41:29.344Z,1.85
2023-03-13T23:45:51.184Z,1.95
2023-03-13T23:50:16.303Z,1.90
2023-03-13T23:54:38.708Z,1.70
2023-03-13T23:59:00.972Z,1.80
